Glory Trader — HPKO — position and weather

sailwx.info

Track history (hours):
 
Tides and Currents Weather Stations Pressure Air Temp Water Temp Dewpoint Dewpoint Depression Visibility Wind Speed Wind Dir Waves Ship Positions

Glory Trader

Last reported at 2017-Sep-02 07:54 UTC. Time now 2017-Sep-22 19:12 UTC.
Position N 39°58' W 031°60'.
Warning: this ship's position is 20 days out of date.

Length 225 m; draft 8.6 m.

Type: Cargo ship. MMSI: 353577000.

Date/timePositionNaut miles runAvg speedWind from/ knotsBaromVisibWave heightAir tempDewpointWater temp
2017-Sep-02 07:54N 39°58' W 031°60'410.2
2017-Sep-02 07:30N 39°60' W 031°55'510.1
2017-Sep-02 06:59N 40°02' W 031°49'4110.2
2017-Sep-02 02:58N 40°21' W 031°01'510.6
2017-Sep-02 02:30N 40°23' W 030°55'1010.7
2017-Sep-02 01:31N 40°28' W 030°43'010.6
2017-Sep-02 01:31N 40°28' W 030°43'710.7
2017-Sep-02 00:49N 40°32' W 030°34'2110.9
2017-Sep-01 22:54N 40°41' W 030°10'2311.1
2017-Sep-01 20:51N 40°52' W 029°43'1311.0
2017-Sep-01 19:39N 40°58' W 029°28'110.7
2017-Sep-01 19:31N 40°59' W 029°26'510.3
2017-Sep-01 19:00N 41°01' W 029°20'810.4
2017-Sep-01 18:12N 41°05' W 029°10'210.4
2017-Sep-01 18:01N 41°06' W 029°08'610.8
2017-Sep-01 17:29N 41°09' W 029°01'  
2017-Aug-28 23:40N 49°23' W 006°25'212.3
2017-Aug-28 23:30N 49°24' W 006°22'612.2
2017-Aug-28 23:00N 49°24' W 006°13'611.9
2017-Aug-28 22:30N 49°25' W 006°04'612.0
2017-Aug-28 22:00N 49°25' W 005°55'612.1
2017-Aug-28 21:30N 49°26' W 005°45'611.8
2017-Aug-28 21:01N 49°27' W 005°36'611.9
2017-Aug-28 20:30N 49°27' W 005°27'611.8
2017-Aug-28 20:00N 49°28' W 005°18'611.9
2017-Aug-28 19:31N 49°29' W 005°09'611.8
2017-Aug-28 19:00N 49°29' W 005°00'611.9
2017-Aug-28 18:30N 49°31' W 004°51'612.2
2017-Aug-28 18:00N 49°33' W 004°43'612.5
2017-Aug-28 17:31N 49°35' W 004°34'612.8
2017-Aug-28 17:00N 49°38' W 004°24'613.0
2017-Aug-28 16:30N 49°40' W 004°15'713.2
2017-Aug-28 16:00N 49°42' W 004°05'713.2
2017-Aug-28 15:31N 49°45' W 003°56'713.2
2017-Aug-28 15:01N 49°47' W 003°46'612.8
2017-Aug-28 14:30N 49°50' W 003°37'612.4
2017-Aug-28 14:00N 49°51' W 003°28'612.2
2017-Aug-28 13:30N 49°53' W 003°19'611.7
2017-Aug-28 13:00N 49°55' W 003°11'611.5
2017-Aug-28 12:30N 49°58' W 003°02'611.2
2017-Aug-28 12:00N 49°59' W 002°54'511.0
2017-Aug-28 11:31N 50°01' W 002°46'510.9
2017-Aug-28 11:00N 50°03' W 002°38'510.9
2017-Aug-28 10:30N 50°04' W 002°30'611.0
2017-Aug-28 10:00N 50°06' W 002°21'611.4
2017-Aug-28 09:30N 50°07' W 002°13'611.9
2017-Aug-28 09:00N 50°09' W 002°04'612.5
2017-Aug-28 08:31N 50°11' W 001°55'713.2
2017-Aug-28 08:00N 50°12' W 001°45'713.8
2017-Aug-28 07:31N 50°14' W 001°34'714.3
2017-Aug-28 07:01N 50°16' W 001°24'714.8
2017-Aug-28 06:31N 50°18' W 001°12'815.2
2017-Aug-28 06:01N 50°20' W 001°01'815.1
2017-Aug-28 05:31N 50°22' W 000°49'714.3
2017-Aug-28 05:01N 50°24' W 000°39'714.0
2017-Aug-28 04:31N 50°26' W 000°28'713.4
2017-Aug-28 04:00N 50°27' W 000°18'612.9
2017-Aug-28 03:30N 50°29' W 000°08'612.4
2017-Aug-28 03:00N 50°31' E 000°01'612.0
2017-Aug-28 02:30N 50°32' E 000°10'611.5
2017-Aug-28 02:00N 50°34' E 000°19'611.0
2017-Aug-28 01:30N 50°35' E 000°27'510.8
2017-Aug-28 01:00N 50°38' E 000°35'611.1
2017-Aug-28 00:30N 50°41' E 000°42'611.6
2017-Aug-28 00:00N 50°44' E 000°50'612.2
2017-Aug-27 23:30N 50°48' E 000°58'613.0
2017-Aug-27 23:00N 50°52' E 001°06'713.6
2017-Aug-27 22:30N 50°56' E 001°14'714.3
2017-Aug-27 22:00N 51°01' E 001°22'714.3
2017-Aug-27 21:30N 51°06' E 001°31'713.8
2017-Aug-27 21:00N 51°10' E 001°39'713.1
2017-Aug-27 20:30N 51°15' E 001°46'612.3
2017-Aug-27 20:00N 51°20' E 001°51'611.7
2017-Aug-27 19:30N 51°25' E 001°56'611.3
2017-Aug-27 19:01N 51°30' E 002°01'611.0
2017-Aug-27 18:30N 51°34' E 002°06'510.9
2017-Aug-27 18:00N 51°38' E 002°12'510.5
2017-Aug-27 17:30N 51°42' E 002°18'510.6
2017-Aug-27 17:00N 51°46' E 002°24'510.8
2017-Aug-27 16:30N 51°50' E 002°29'611.2
2017-Aug-27 16:00N 51°54' E 002°36'611.7
2017-Aug-27 15:30N 51°59' E 002°42'612.2
2017-Aug-27 15:00N 52°03' E 002°49'612.8
2017-Aug-27 14:30N 52°08' E 002°56'713.2
2017-Aug-27 14:00N 52°13' E 003°02'713.5
2017-Aug-27 13:30N 52°19' E 003°09'713.6
2017-Aug-27 13:00N 52°24' E 003°15'713.6
2017-Aug-27 12:30N 52°30' E 003°22'713.5
2017-Aug-27 12:00N 52°35' E 003°28'713.3
2017-Aug-27 11:30N 52°40' E 003°35'712.9
2017-Aug-27 11:00N 52°45' E 003°42'612.6
2017-Aug-27 10:30N 52°50' E 003°49'612.1
2017-Aug-27 10:00N 52°55' E 003°55'611.7
2017-Aug-27 09:30N 52°59' E 004°02'611.4
2017-Aug-27 09:00N 53°02' E 004°10'611.3
2017-Aug-27 08:30N 53°06' E 004°17'611.1
2017-Aug-27 08:00N 53°10' E 004°23'510.5
2017-Aug-27 07:30N 53°15' E 004°27'710.9
2017-Aug-27 06:50N 53°21' E 004°32'511.6
2017-Aug-27 06:26N 53°26' E 004°35'611.3
2017-Aug-27 05:54N 53°29' E 004°43'512.8
2017-Aug-27 05:30N 53°32' E 004°51'613.2
2017-Aug-27 05:00N 53°34' E 005°01'713.3
2017-Aug-27 04:30N 53°37' E 005°11'8111.7
2017-Aug-26 21:34N 53°59' E 007°23'111.8
2017-Aug-26 21:29N 53°59' E 007°24'612.0
2017-Aug-26 21:00N 54°01' E 007°34'612.3
2017-Aug-26 20:30N 54°02' E 007°44'713.3
2017-Aug-26 20:00N 54°01' E 007°56'713.7
2017-Aug-26 19:30N 54°01' E 008°07'1114.4
2017-Aug-26 18:43N 53°59' E 008°26'316.4
2017-Aug-26 18:30N 53°58' E 008°32'714.9
2017-Aug-26 18:00N 53°54' E 008°42'713.2
2017-Aug-26 17:30N 53°50' E 008°52'612.7
2017-Aug-26 17:00N 53°52' E 009°02'510.5
2017-Aug-26 16:30N 53°53' E 009°11'4 9.0
2017-Aug-26 16:00N 53°52' E 009°18'510.4
2017-Aug-26 15:30N 53°47' E 009°23'5 9.8
2017-Aug-26 15:00N 53°43' E 009°28'4 4.0
2017-Aug-26 13:56N 53°39' E 009°31'0 0.0
2017-Aug-26 13:28N 53°39' E 009°31'0 0.0
2017-Aug-26 12:59N 53°39' E 009°31'0 0.0
2017-Aug-26 12:25N 53°39' E 009°31'0 0.0
2017-Aug-26 11:58N 53°39' E 009°31'0 0.0
2017-Aug-26 11:28N 53°39' E 009°31'0 0.0
2017-Aug-26 10:56N 53°39' E 009°31'0 0.0
2017-Aug-26 10:26N 53°39' E 009°31'0 0.0
2017-Aug-26 09:58N 53°39' E 009°31'0 0.0
2017-Aug-26 09:28N 53°39' E 009°31'0 0.0
2017-Aug-26 08:59N 53°39' E 009°31'0 0.0
2017-Aug-26 08:29N 53°39' E 009°31'0 0.0
2017-Aug-26 07:58N 53°39' E 009°31'0 0.0
2017-Aug-26 07:29N 53°39' E 009°31'0 0.0
2017-Aug-26 06:59N 53°39' E 009°31'0 0.0
2017-Aug-26 06:29N 53°39' E 009°31'0 0.0
2017-Aug-26 05:58N 53°39' E 009°31'0 0.0
2017-Aug-26 05:29N 53°39' E 009°31'0 0.0
2017-Aug-26 04:59N 53°39' E 009°31'0 0.0
2017-Aug-26 04:25N 53°39' E 009°31'0 0.0
2017-Aug-26 03:58N 53°39' E 009°31'0 0.0
2017-Aug-26 03:28N 53°39' E 009°31'0 0.0
2017-Aug-26 02:58N 53°39' E 009°31'0 0.0
2017-Aug-26 02:29N 53°39' E 009°31'0 0.0
2017-Aug-26 01:55N 53°39' E 009°31'0 0.0
2017-Aug-26 01:28N 53°39' E 009°31'0 0.0
2017-Aug-26 00:58N 53°39' E 009°31'0 0.0
2017-Aug-26 00:25N 53°39' E 009°31'0 0.0
2017-Aug-25 23:55N 53°39' E 009°31'0 0.0
2017-Aug-25 23:25N 53°39' E 009°31'0 0.0
2017-Aug-25 22:58N 53°39' E 009°31'0 0.0
2017-Aug-25 22:28N 53°39' E 009°31'0 0.0
2017-Aug-25 21:58N 53°39' E 009°31'0 0.0
2017-Aug-25 21:25N 53°39' E 009°31'0 0.0
2017-Aug-25 20:59N 53°39' E 009°31'0 0.0
2017-Aug-25 20:30N 53°39' E 009°31'0 0.0
2017-Aug-25 19:55N 53°39' E 009°31'0 0.0
2017-Aug-25 19:28N 53°39' E 009°31'0 0.0
2017-Aug-25 18:58N 53°39' E 009°31'0 0.0
2017-Aug-25 18:28N 53°39' E 009°31'0 0.0
2017-Aug-25 17:58N 53°39' E 009°31'0 0.0
2017-Aug-25 17:28N 53°39' E 009°31'0 0.0
2017-Aug-25 16:58N 53°39' E 009°31'0 0.0
2017-Aug-25 16:28N 53°39' E 009°31'0 0.0
2017-Aug-25 15:58N 53°39' E 009°31'0 0.0
2017-Aug-25 15:25N 53°39' E 009°31'0 0.0
2017-Aug-25 14:58N 53°39' E 009°31'0 0.0
2017-Aug-25 13:58N 53°39' E 009°31'0 0.0
2017-Aug-25 13:28N 53°39' E 009°31'0 0.0
2017-Aug-25 12:58N 53°39' E 009°31'0 0.0
2017-Aug-25 12:28N 53°39' E 009°31'0 0.0
2017-Aug-25 11:58N 53°39' E 009°31'0 0.0
2017-Aug-25 11:28N 53°39' E 009°31'0 0.0
2017-Aug-25 10:58N 53°39' E 009°31'0 0.0
2017-Aug-25 10:28N 53°39' E 009°31'0 0.0
2017-Aug-25 09:58N 53°39' E 009°31'0 0.0
2017-Aug-25 09:28N 53°39' E 009°31'0 0.0
2017-Aug-25 08:58N 53°39' E 009°31'0 0.0
2017-Aug-25 08:28N 53°39' E 009°31'0 0.0
2017-Aug-25 07:58N 53°39' E 009°31'0 0.0
2017-Aug-25 07:28N 53°39' E 009°31'0 0.0
2017-Aug-25 06:52N 53°39' E 009°31'0 0.0
2017-Aug-25 06:28N 53°39' E 009°31'0 0.0
2017-Aug-25 05:58N 53°39' E 009°31'0 0.0
2017-Aug-25 05:28N 53°39' E 009°31'0 0.0
2017-Aug-25 04:58N 53°39' E 009°31'0 0.0
2017-Aug-25 04:28N 53°39' E 009°31'0 0.0
2017-Aug-25 03:58N 53°39' E 009°31'0 0.0
2017-Aug-25 03:28N 53°39' E 009°31'0 0.0
2017-Aug-25 02:58N 53°39' E 009°31'0 0.0
2017-Aug-25 02:28N 53°39' E 009°31'0 0.0
2017-Aug-25 01:58N 53°39' E 009°31'0 0.0
2017-Aug-25 01:28N 53°39' E 009°31'0 0.0
2017-Aug-25 00:58N 53°39' E 009°31'0 0.0
2017-Aug-25 00:28N 53°39' E 009°31'0 0.0
2017-Aug-24 23:58N 53°39' E 009°31'0 0.0
2017-Aug-24 23:25N 53°39' E 009°31'0 0.0
2017-Aug-24 22:58N 53°39' E 009°31'0 0.0
2017-Aug-24 22:28N 53°39' E 009°31'0 0.0
2017-Aug-24 21:58N 53°39' E 009°31'0 0.0
2017-Aug-24 21:25N 53°39' E 009°31'0 0.0
2017-Aug-24 20:58N 53°39' E 009°31'0 0.0
2017-Aug-24 20:28N 53°39' E 009°31'0 0.0
2017-Aug-24 19:55N 53°39' E 009°31'0 0.0
2017-Aug-24 19:28N 53°39' E 009°31'0 0.0
2017-Aug-24 18:58N 53°39' E 009°31'0 0.0
2017-Aug-24 18:25N 53°39' E 009°31'0 0.0
2017-Aug-24 17:58N 53°39' E 009°31'0 0.0
2017-Aug-24 17:28N 53°39' E 009°31'0 0.0
2017-Aug-24 16:55N 53°39' E 009°31'0 0.0
2017-Aug-24 16:28N 53°39' E 009°31'0 0.0
2017-Aug-24 15:58N 53°39' E 009°31'0 0.0
2017-Aug-24 15:25N 53°39' E 009°31'0 0.0
2017-Aug-24 14:58N 53°39' E 009°31'0 0.0
2017-Aug-24 14:25N 53°39' E 009°31'0 0.0
2017-Aug-24 13:58N 53°39' E 009°31'0 0.0
2017-Aug-24 13:28N 53°39' E 009°31'0 0.0
2017-Aug-24 12:58N 53°39' E 009°31'0 0.0
2017-Aug-24 12:28N 53°39' E 009°31'0 0.0
2017-Aug-24 11:58N 53°39' E 009°31'0 0.0
2017-Aug-24 11:28N 53°39' E 009°31'0 0.0
2017-Aug-24 10:55N 53°39' E 009°31'0 0.0
2017-Aug-24 10:28N 53°39' E 009°31'0 0.0
2017-Aug-24 09:58N 53°39' E 009°31'0 0.0
2017-Aug-24 09:28N 53°39' E 009°31'0 0.0
2017-Aug-24 08:55N 53°39' E 009°31'0 0.0
2017-Aug-24 08:28N 53°39' E 009°31'0 0.0
2017-Aug-24 07:58N 53°39' E 009°31'0 0.0
2017-Aug-24 07:28N 53°39' E 009°31'0 0.0
2017-Aug-24 06:58N 53°39' E 009°31'0 0.0
2017-Aug-24 06:28N 53°39' E 009°31'0 0.0
2017-Aug-24 05:58N 53°39' E 009°31'0 0.0
2017-Aug-24 05:28N 53°39' E 009°31'0 0.0
2017-Aug-24 04:55N 53°39' E 009°31'0 0.0
2017-Aug-24 04:28N 53°39' E 009°31'0 0.0
2017-Aug-24 03:58N 53°39' E 009°31'0 0.0
2017-Aug-24 03:28N 53°39' E 009°31'0 0.0
2017-Aug-24 02:58N 53°39' E 009°31'0 0.0
2017-Aug-24 02:25N 53°39' E 009°31'0 0.0
2017-Aug-24 01:58N 53°39' E 009°31'0 0.0
2017-Aug-24 01:28N 53°39' E 009°31'0 0.0
2017-Aug-24 00:58N 53°39' E 009°31'0 0.0
2017-Aug-24 00:28N 53°39' E 009°31'0 0.0
2017-Aug-23 23:58N 53°39' E 009°31'0 0.0
2017-Aug-23 23:28N 53°39' E 009°31'0 0.0
2017-Aug-23 22:55N 53°39' E 009°31'0 0.0
2017-Aug-23 22:25N 53°39' E 009°31'0 0.0
2017-Aug-23 21:58N 53°39' E 009°31'0 0.0
2017-Aug-23 21:28N 53°39' E 009°31'0 0.0
2017-Aug-23 20:58N 53°39' E 009°31'0 0.0
2017-Aug-23 20:28N 53°39' E 009°31'0 0.0
2017-Aug-23 19:58N 53°39' E 009°31'0 0.0
2017-Aug-23 19:28N 53°39' E 009°31'0 0.0
2017-Aug-23 18:58N 53°39' E 009°31'0 0.0
2017-Aug-23 18:28N 53°39' E 009°31'0 0.0
2017-Aug-23 17:58N 53°39' E 009°31'0 0.0
2017-Aug-23 17:28N 53°39' E 009°31'0 0.0
2017-Aug-23 16:58N 53°39' E 009°31'0 0.0
2017-Aug-23 16:28N 53°39' E 009°31'0 0.0
2017-Aug-23 15:58N 53°39' E 009°31'0 0.0
2017-Aug-23 15:28N 53°39' E 009°31'0 0.0
2017-Aug-23 14:58N 53°39' E 009°31'0 0.0
2017-Aug-23 14:28N 53°39' E 009°31'0 0.0
2017-Aug-23 13:28N 53°39' E 009°31'0 0.0
2017-Aug-23 12:55N 53°39' E 009°31'0 0.0
2017-Aug-23 12:28N 53°39' E 009°31'0 0.0
2017-Aug-23 11:55N 53°39' E 009°31'0 0.0
2017-Aug-23 11:28N 53°39' E 009°31'0 0.0
2017-Aug-23 10:58N 53°39' E 009°31'0 0.0
2017-Aug-23 10:25N 53°39' E 009°31'0 0.0
2017-Aug-23 09:58N 53°39' E 009°31'0 0.0
2017-Aug-23 09:28N 53°39' E 009°31'0 0.0
2017-Aug-23 08:55N 53°39' E 009°31'0 0.0
2017-Aug-23 08:28N 53°39' E 009°31'0 0.0
2017-Aug-23 07:55N 53°39' E 009°31'  
Track history (hours):
 
Tides and Currents Weather Stations Pressure Air Temp Water Temp Dewpoint Dewpoint Depression Visibility Wind Speed Wind Dir Waves Ship Positions

Glory Trader

Last reported at 2017-Sep-02 07:54 UTC. Time now 2017-Sep-22 19:12 UTC.
Position N 39°58' W 031°60'.
Warning: this ship's position is 20 days out of date.

Length 225 m; draft 8.6 m.

Type: Cargo ship. MMSI: 353577000.

Date/timePositionNaut miles runAvg speedWind from/ knotsBaromVisibWave heightAir tempDewpointWater temp
2017-Sep-02 07:54N 39°58' W 031°60'410.2
2017-Sep-02 07:30N 39°60' W 031°55'510.1
2017-Sep-02 06:59N 40°02' W 031°49'4110.2
2017-Sep-02 02:58N 40°21' W 031°01'510.6
2017-Sep-02 02:30N 40°23' W 030°55'1010.7
2017-Sep-02 01:31N 40°28' W 030°43'010.6
2017-Sep-02 01:31N 40°28' W 030°43'710.7
2017-Sep-02 00:49N 40°32' W 030°34'2110.9
2017-Sep-01 22:54N 40°41' W 030°10'2311.1
2017-Sep-01 20:51N 40°52' W 029°43'1311.0
2017-Sep-01 19:39N 40°58' W 029°28'110.7
2017-Sep-01 19:31N 40°59' W 029°26'510.3
2017-Sep-01 19:00N 41°01' W 029°20'810.4
2017-Sep-01 18:12N 41°05' W 029°10'210.4
2017-Sep-01 18:01N 41°06' W 029°08'610.8
2017-Sep-01 17:29N 41°09' W 029°01'  
2017-Aug-28 23:40N 49°23' W 006°25'212.3
2017-Aug-28 23:30N 49°24' W 006°22'612.2
2017-Aug-28 23:00N 49°24' W 006°13'611.9
2017-Aug-28 22:30N 49°25' W 006°04'612.0
2017-Aug-28 22:00N 49°25' W 005°55'612.1
2017-Aug-28 21:30N 49°26' W 005°45'611.8
2017-Aug-28 21:01N 49°27' W 005°36'611.9
2017-Aug-28 20:30N 49°27' W 005°27'611.8
2017-Aug-28 20:00N 49°28' W 005°18'611.9
2017-Aug-28 19:31N 49°29' W 005°09'611.8
2017-Aug-28 19:00N 49°29' W 005°00'611.9
2017-Aug-28 18:30N 49°31' W 004°51'612.2
2017-Aug-28 18:00N 49°33' W 004°43'612.5
2017-Aug-28 17:31N 49°35' W 004°34'612.8
2017-Aug-28 17:00N 49°38' W 004°24'613.0
2017-Aug-28 16:30N 49°40' W 004°15'713.2
2017-Aug-28 16:00N 49°42' W 004°05'713.2
2017-Aug-28 15:31N 49°45' W 003°56'713.2
2017-Aug-28 15:01N 49°47' W 003°46'612.8
2017-Aug-28 14:30N 49°50' W 003°37'612.4
2017-Aug-28 14:00N 49°51' W 003°28'612.2
2017-Aug-28 13:30N 49°53' W 003°19'611.7
2017-Aug-28 13:00N 49°55' W 003°11'611.5
2017-Aug-28 12:30N 49°58' W 003°02'611.2
2017-Aug-28 12:00N 49°59' W 002°54'511.0
2017-Aug-28 11:31N 50°01' W 002°46'510.9
2017-Aug-28 11:00N 50°03' W 002°38'510.9
2017-Aug-28 10:30N 50°04' W 002°30'611.0
2017-Aug-28 10:00N 50°06' W 002°21'611.4
2017-Aug-28 09:30N 50°07' W 002°13'611.9
2017-Aug-28 09:00N 50°09' W 002°04'612.5
2017-Aug-28 08:31N 50°11' W 001°55'713.2
2017-Aug-28 08:00N 50°12' W 001°45'713.8
2017-Aug-28 07:31N 50°14' W 001°34'714.3
2017-Aug-28 07:01N 50°16' W 001°24'714.8
2017-Aug-28 06:31N 50°18' W 001°12'815.2
2017-Aug-28 06:01N 50°20' W 001°01'815.1
2017-Aug-28 05:31N 50°22' W 000°49'714.3
2017-Aug-28 05:01N 50°24' W 000°39'714.0
2017-Aug-28 04:31N 50°26' W 000°28'713.4
2017-Aug-28 04:00N 50°27' W 000°18'612.9
2017-Aug-28 03:30N 50°29' W 000°08'612.4
2017-Aug-28 03:00N 50°31' E 000°01'612.0
2017-Aug-28 02:30N 50°32' E 000°10'611.5
2017-Aug-28 02:00N 50°34' E 000°19'611.0
2017-Aug-28 01:30N 50°35' E 000°27'510.8
2017-Aug-28 01:00N 50°38' E 000°35'611.1
2017-Aug-28 00:30N 50°41' E 000°42'611.6
2017-Aug-28 00:00N 50°44' E 000°50'612.2
2017-Aug-27 23:30N 50°48' E 000°58'613.0
2017-Aug-27 23:00N 50°52' E 001°06'713.6
2017-Aug-27 22:30N 50°56' E 001°14'714.3
2017-Aug-27 22:00N 51°01' E 001°22'714.3
2017-Aug-27 21:30N 51°06' E 001°31'713.8
2017-Aug-27 21:00N 51°10' E 001°39'713.1
2017-Aug-27 20:30N 51°15' E 001°46'612.3
2017-Aug-27 20:00N 51°20' E 001°51'611.7
2017-Aug-27 19:30N 51°25' E 001°56'611.3
2017-Aug-27 19:01N 51°30' E 002°01'611.0
2017-Aug-27 18:30N 51°34' E 002°06'510.9
2017-Aug-27 18:00N 51°38' E 002°12'510.5
2017-Aug-27 17:30N 51°42' E 002°18'510.6
2017-Aug-27 17:00N 51°46' E 002°24'510.8
2017-Aug-27 16:30N 51°50' E 002°29'611.2
2017-Aug-27 16:00N 51°54' E 002°36'611.7
2017-Aug-27 15:30N 51°59' E 002°42'612.2
2017-Aug-27 15:00N 52°03' E 002°49'612.8
2017-Aug-27 14:30N 52°08' E 002°56'713.2
2017-Aug-27 14:00N 52°13' E 003°02'713.5
2017-Aug-27 13:30N 52°19' E 003°09'713.6
2017-Aug-27 13:00N 52°24' E 003°15'713.6
2017-Aug-27 12:30N 52°30' E 003°22'713.5
2017-Aug-27 12:00N 52°35' E 003°28'713.3
2017-Aug-27 11:30N 52°40' E 003°35'712.9
2017-Aug-27 11:00N 52°45' E 003°42'612.6
2017-Aug-27 10:30N 52°50' E 003°49'612.1
2017-Aug-27 10:00N 52°55' E 003°55'611.7
2017-Aug-27 09:30N 52°59' E 004°02'611.4
2017-Aug-27 09:00N 53°02' E 004°10'611.3
2017-Aug-27 08:30N 53°06' E 004°17'611.1
2017-Aug-27 08:00N 53°10' E 004°23'510.5
2017-Aug-27 07:30N 53°15' E 004°27'710.9
2017-Aug-27 06:50N 53°21' E 004°32'511.6
2017-Aug-27 06:26N 53°26' E 004°35'611.3
2017-Aug-27 05:54N 53°29' E 004°43'512.8
2017-Aug-27 05:30N 53°32' E 004°51'613.2
2017-Aug-27 05:00N 53°34' E 005°01'713.3
2017-Aug-27 04:30N 53°37' E 005°11'8111.7
2017-Aug-26 21:34N 53°59' E 007°23'111.8
2017-Aug-26 21:29N 53°59' E 007°24'612.0
2017-Aug-26 21:00N 54°01' E 007°34'612.3
2017-Aug-26 20:30N 54°02' E 007°44'713.3
2017-Aug-26 20:00N 54°01' E 007°56'713.7
2017-Aug-26 19:30N 54°01' E 008°07'1114.4
2017-Aug-26 18:43N 53°59' E 008°26'316.4
2017-Aug-26 18:30N 53°58' E 008°32'714.9
2017-Aug-26 18:00N 53°54' E 008°42'713.2
2017-Aug-26 17:30N 53°50' E 008°52'612.7
2017-Aug-26 17:00N 53°52' E 009°02'510.5
2017-Aug-26 16:30N 53°53' E 009°11'4 9.0
2017-Aug-26 16:00N 53°52' E 009°18'510.4
2017-Aug-26 15:30N 53°47' E 009°23'5 9.8
2017-Aug-26 15:00N 53°43' E 009°28'4 4.0
2017-Aug-26 13:56N 53°39' E 009°31'0 0.0
2017-Aug-26 13:28N 53°39' E 009°31'0 0.0
2017-Aug-26 12:59N 53°39' E 009°31'0 0.0
2017-Aug-26 12:25N 53°39' E 009°31'0 0.0
2017-Aug-26 11:58N 53°39' E 009°31'0 0.0
2017-Aug-26 11:28N 53°39' E 009°31'0 0.0
2017-Aug-26 10:56N 53°39' E 009°31'0 0.0
2017-Aug-26 10:26N 53°39' E 009°31'0 0.0
2017-Aug-26 09:58N 53°39' E 009°31'0 0.0
2017-Aug-26 09:28N 53°39' E 009°31'0 0.0
2017-Aug-26 08:59N 53°39' E 009°31'0 0.0
2017-Aug-26 08:29N 53°39' E 009°31'0 0.0
2017-Aug-26 07:58N 53°39' E 009°31'0 0.0
2017-Aug-26 07:29N 53°39' E 009°31'0 0.0
2017-Aug-26 06:59N 53°39' E 009°31'0 0.0
2017-Aug-26 06:29N 53°39' E 009°31'0 0.0
2017-Aug-26 05:58N 53°39' E 009°31'0 0.0
2017-Aug-26 05:29N 53°39' E 009°31'0 0.0
2017-Aug-26 04:59N 53°39' E 009°31'0 0.0
2017-Aug-26 04:25N 53°39' E 009°31'0 0.0
2017-Aug-26 03:58N 53°39' E 009°31'0 0.0
2017-Aug-26 03:28N 53°39' E 009°31'0 0.0
2017-Aug-26 02:58N 53°39' E 009°31'0 0.0
2017-Aug-26 02:29N 53°39' E 009°31'0 0.0
2017-Aug-26 01:55N 53°39' E 009°31'0 0.0
2017-Aug-26 01:28N 53°39' E 009°31'0 0.0
2017-Aug-26 00:58N 53°39' E 009°31'0 0.0
2017-Aug-26 00:25N 53°39' E 009°31'0 0.0
2017-Aug-25 23:55N 53°39' E 009°31'0 0.0
2017-Aug-25 23:25N 53°39' E 009°31'0 0.0
2017-Aug-25 22:58N 53°39' E 009°31'0 0.0
2017-Aug-25 22:28N 53°39' E 009°31'0 0.0
2017-Aug-25 21:58N 53°39' E 009°31'0 0.0
2017-Aug-25 21:25N 53°39' E 009°31'0 0.0
2017-Aug-25 20:59N 53°39' E 009°31'0 0.0
2017-Aug-25 20:30N 53°39' E 009°31'0 0.0
2017-Aug-25 19:55N 53°39' E 009°31'0 0.0
2017-Aug-25 19:28N 53°39' E 009°31'0 0.0
2017-Aug-25 18:58N 53°39' E 009°31'0 0.0
2017-Aug-25 18:28N 53°39' E 009°31'0 0.0
2017-Aug-25 17:58N 53°39' E 009°31'0 0.0
2017-Aug-25 17:28N 53°39' E 009°31'0 0.0
2017-Aug-25 16:58N 53°39' E 009°31'0 0.0
2017-Aug-25 16:28N 53°39' E 009°31'0 0.0
2017-Aug-25 15:58N 53°39' E 009°31'0 0.0
2017-Aug-25 15:25N 53°39' E 009°31'0 0.0
2017-Aug-25 14:58N 53°39' E 009°31'0 0.0
2017-Aug-25 13:58N 53°39' E 009°31'0 0.0
2017-Aug-25 13:28N 53°39' E 009°31'0 0.0
2017-Aug-25 12:58N 53°39' E 009°31'0 0.0
2017-Aug-25 12:28N 53°39' E 009°31'0 0.0
2017-Aug-25 11:58N 53°39' E 009°31'0 0.0
2017-Aug-25 11:28N 53°39' E 009°31'0 0.0
2017-Aug-25 10:58N 53°39' E 009°31'0 0.0
2017-Aug-25 10:28N 53°39' E 009°31'0 0.0
2017-Aug-25 09:58N 53°39' E 009°31'0 0.0
2017-Aug-25 09:28N 53°39' E 009°31'0 0.0
2017-Aug-25 08:58N 53°39' E 009°31'0 0.0
2017-Aug-25 08:28N 53°39' E 009°31'0 0.0
2017-Aug-25 07:58N 53°39' E 009°31'0 0.0
2017-Aug-25 07:28N 53°39' E 009°31'0 0.0
2017-Aug-25 06:52N 53°39' E 009°31'0 0.0
2017-Aug-25 06:28N 53°39' E 009°31'0 0.0
2017-Aug-25 05:58N 53°39' E 009°31'0 0.0
2017-Aug-25 05:28N 53°39' E 009°31'0 0.0
2017-Aug-25 04:58N 53°39' E 009°31'0 0.0
2017-Aug-25 04:28N 53°39' E 009°31'0 0.0
2017-Aug-25 03:58N 53°39' E 009°31'0 0.0
2017-Aug-25 03:28N 53°39' E 009°31'0 0.0
2017-Aug-25 02:58N 53°39' E 009°31'0 0.0
2017-Aug-25 02:28N 53°39' E 009°31'0 0.0
2017-Aug-25 01:58N 53°39' E 009°31'0 0.0
2017-Aug-25 01:28N 53°39' E 009°31'0 0.0
2017-Aug-25 00:58N 53°39' E 009°31'0 0.0
2017-Aug-25 00:28N 53°39' E 009°31'0 0.0
2017-Aug-24 23:58N 53°39' E 009°31'0 0.0
2017-Aug-24 23:25N 53°39' E 009°31'0 0.0
2017-Aug-24 22:58N 53°39' E 009°31'0 0.0
2017-Aug-24 22:28N 53°39' E 009°31'0 0.0
2017-Aug-24 21:58N 53°39' E 009°31'0 0.0
2017-Aug-24 21:25N 53°39' E 009°31'0 0.0
2017-Aug-24 20:58N 53°39' E 009°31'0 0.0
2017-Aug-24 20:28N 53°39' E 009°31'0 0.0
2017-Aug-24 19:55N 53°39' E 009°31'0 0.0
2017-Aug-24 19:28N 53°39' E 009°31'0 0.0
2017-Aug-24 18:58N 53°39' E 009°31'0 0.0
2017-Aug-24 18:25N 53°39' E 009°31'0 0.0
2017-Aug-24 17:58N 53°39' E 009°31'0 0.0
2017-Aug-24 17:28N 53°39' E 009°31'0 0.0
2017-Aug-24 16:55N 53°39' E 009°31'0 0.0
2017-Aug-24 16:28N 53°39' E 009°31'0 0.0
2017-Aug-24 15:58N 53°39' E 009°31'0 0.0
2017-Aug-24 15:25N 53°39' E 009°31'0 0.0
2017-Aug-24 14:58N 53°39' E 009°31'0 0.0
2017-Aug-24 14:25N 53°39' E 009°31'0 0.0
2017-Aug-24 13:58N 53°39' E 009°31'0 0.0
2017-Aug-24 13:28N 53°39' E 009°31'0 0.0
2017-Aug-24 12:58N 53°39' E 009°31'0 0.0
2017-Aug-24 12:28N 53°39' E 009°31'0 0.0
2017-Aug-24 11:58N 53°39' E 009°31'0 0.0
2017-Aug-24 11:28N 53°39' E 009°31'0 0.0
2017-Aug-24 10:55N 53°39' E 009°31'0 0.0
2017-Aug-24 10:28N 53°39' E 009°31'0 0.0
2017-Aug-24 09:58N 53°39' E 009°31'0 0.0
2017-Aug-24 09:28N 53°39' E 009°31'0 0.0
2017-Aug-24 08:55N 53°39' E 009°31'0 0.0
2017-Aug-24 08:28N 53°39' E 009°31'0 0.0
2017-Aug-24 07:58N 53°39' E 009°31'0 0.0
2017-Aug-24 07:28N 53°39' E 009°31'0 0.0
2017-Aug-24 06:58N 53°39' E 009°31'0 0.0
2017-Aug-24 06:28N 53°39' E 009°31'0 0.0
2017-Aug-24 05:58N 53°39' E 009°31'0 0.0
2017-Aug-24 05:28N 53°39' E 009°31'0 0.0
2017-Aug-24 04:55N 53°39' E 009°31'0 0.0
2017-Aug-24 04:28N 53°39' E 009°31'0 0.0
2017-Aug-24 03:58N 53°39' E 009°31'0 0.0
2017-Aug-24 03:28N 53°39' E 009°31'0 0.0
2017-Aug-24 02:58N 53°39' E 009°31'0 0.0
2017-Aug-24 02:25N 53°39' E 009°31'0 0.0
2017-Aug-24 01:58N 53°39' E 009°31'0 0.0
2017-Aug-24 01:28N 53°39' E 009°31'0 0.0
2017-Aug-24 00:58N 53°39' E 009°31'0 0.0
2017-Aug-24 00:28N 53°39' E 009°31'0 0.0
2017-Aug-23 23:58N 53°39' E 009°31'0 0.0
2017-Aug-23 23:28N 53°39' E 009°31'0 0.0
2017-Aug-23 22:55N 53°39' E 009°31'0 0.0
2017-Aug-23 22:25N 53°39' E 009°31'0 0.0
2017-Aug-23 21:58N 53°39' E 009°31'0 0.0
2017-Aug-23 21:28N 53°39' E 009°31'0 0.0
2017-Aug-23 20:58N 53°39' E 009°31'0 0.0
2017-Aug-23 20:28N 53°39' E 009°31'0 0.0
2017-Aug-23 19:58N 53°39' E 009°31'0 0.0
2017-Aug-23 19:28N 53°39' E 009°31'0 0.0
2017-Aug-23 18:58N 53°39' E 009°31'0 0.0
2017-Aug-23 18:28N 53°39' E 009°31'0 0.0
2017-Aug-23 17:58N 53°39' E 009°31'0 0.0
2017-Aug-23 17:28N 53°39' E 009°31'0 0.0
2017-Aug-23 16:58N 53°39' E 009°31'0 0.0
2017-Aug-23 16:28N 53°39' E 009°31'0 0.0
2017-Aug-23 15:58N 53°39' E 009°31'0 0.0
2017-Aug-23 15:28N 53°39' E 009°31'0 0.0
2017-Aug-23 14:58N 53°39' E 009°31'0 0.0
2017-Aug-23 14:28N 53°39' E 009°31'0 0.0
2017-Aug-23 13:28N 53°39' E 009°31'0 0.0
2017-Aug-23 12:55N 53°39' E 009°31'0 0.0
2017-Aug-23 12:28N 53°39' E 009°31'0 0.0
2017-Aug-23 11:55N 53°39' E 009°31'0 0.0
2017-Aug-23 11:28N 53°39' E 009°31'0 0.0
2017-Aug-23 10:58N 53°39' E 009°31'0 0.0
2017-Aug-23 10:25N 53°39' E 009°31'0 0.0
2017-Aug-23 09:58N 53°39' E 009°31'0 0.0
2017-Aug-23 09:28N 53°39' E 009°31'0 0.0
2017-Aug-23 08:55N 53°39' E 009°31'0 0.0
2017-Aug-23 08:28N 53°39' E 009°31'0 0.0
2017-Aug-23 07:55N 53°39' E 009°31'  

Dump ship's entire track history